Time;durP1;ratioP1;P1;durP2;ratioP2;P2;SDS_P1;SDS_P2;PMS_P1;PMS_P2;Temp;Humidity;BMP_temperature;BMP_pressure;BME280_temperature;BME280_humidity;BME280_pressure;Samples;Min_cycle;Max_cycle;Signal;HPM_P1;HPM_P2
2021/11/11 00:02:04;;;;;;;24.33;11.37;;;4.20;99.90;;;;;;4994296;28;20402;-82
2021/11/11 00:04:30;;;;;;;21.63;10.77;;;4.20;99.90;;;;;;5013903;28;20038;-82
2021/11/11 00:07:00;;;;;;;22.63;11.47;;;4.20;99.90;;;;;;5014740;28;20026;-82
2021/11/11 00:09:26;;;;;;;23.27;10.68;;;4.20;99.90;;;;;;5014681;28;20033;-83
2021/11/11 00:11:53;;;;;;;22.17;10.60;;;4.20;99.90;;;;;;5016789;28;20387;-81
2021/11/11 00:14:19;;;;;;;21.63;11.43;;;4.30;99.90;;;;;;5014962;28;20041;-81
2021/11/11 00:16:45;;;;;;;23.27;11.83;;;4.20;99.90;;;;;;5001393;28;20029;-82
2021/11/11 00:19:11;;;;;;;19.73;10.57;;;4.20;99.90;;;;;;5013698;28;20671;-81
2021/11/11 00:21:37;;;;;;;20.17;11.30;;;4.20;99.90;;;;;;5015386;28;20037;-80
2021/11/11 00:24:03;;;;;;;22.87;11.23;;;4.10;99.90;;;;;;4998196;28;20356;-80
2021/11/11 00:26:29;;;;;;;21.73;10.87;;;4.20;99.90;;;;;;5015476;28;20120;-81
2021/11/11 00:28:55;;;;;;;20.40;10.30;;;4.10;99.90;;;;;;4995626;28;20116;-81
2021/11/11 00:31:21;;;;;;;22.00;10.60;;;4.20;99.90;;;;;;4995777;28;20399;-81
2021/11/11 00:33:47;;;;;;;19.47;10.00;;;4.20;99.90;;;;;;4996490;28;20030;-81
2021/11/11 00:36:15;;;;;;;21.37;10.03;;;4.10;99.90;;;;;;5013794;28;20097;-81
2021/11/11 00:38:41;;;;;;;24.37;10.90;;;4.10;99.90;;;;;;4996388;28;20113;-81
2021/11/11 00:41:06;;;;;;;20.03;10.20;;;4.10;99.90;;;;;;4995374;28;20382;-81
2021/11/11 00:43:33;;;;;;;19.00;10.30;;;4.10;99.90;;;;;;4996083;28;20034;-81
2021/11/11 00:45:59;;;;;;;20.27;10.47;;;4.10;99.90;;;;;;5013166;28;20026;-81
2021/11/11 00:48:26;;;;;;;19.77;10.50;;;4.10;99.90;;;;;;5014046;28;20048;-81
2021/11/11 00:50:53;;;;;;;24.53;11.40;;;4.10;99.90;;;;;;4995324;28;20034;-81
2021/11/11 00:53:19;;;;;;;16.80;9.63;;;4.10;99.90;;;;;;5013473;28;20443;-81
2021/11/11 00:55:46;;;;;;;20.77;10.27;;;4.10;99.90;;;;;;4995134;28;20033;-81
2021/11/11 00:58:19;;;;;;;20.57;10.30;;;4.20;99.90;;;;;;4996016;28;20034;-81
2021/11/11 01:00:45;;;;;;;21.57;10.40;;;4.20;99.90;;;;;;4995258;28;20128;-81
2021/11/11 01:03:13;;;;;;;19.97;10.27;;;4.20;99.90;;;;;;4996005;28;20497;-82
2021/11/11 01:05:39;;;;;;;18.30;9.97;;;4.20;99.90;;;;;;4995784;28;20120;-82
2021/11/11 01:08:06;;;;;;;19.77;9.87;;;4.30;99.90;;;;;;4995835;28;20478;-81
2021/11/11 01:10:33;;;;;;;31.80;13.53;;;4.30;99.90;;;;;;5012718;28;20105;-81
2021/11/11 01:12:59;;;;;;;20.33;10.70;;;4.30;99.90;;;;;;5012798;28;20041;-81
2021/11/11 01:15:30;;;;;;;18.87;10.33;;;4.40;99.90;;;;;;5013387;28;20352;-81
2021/11/11 01:17:56;;;;;;;17.97;9.83;;;4.40;99.90;;;;;;5013619;28;20025;-82
2021/11/11 01:20:22;;;;;;;19.80;9.40;;;4.50;99.90;;;;;;5012925;28;20022;-81
2021/11/11 01:22:50;;;;;;;17.77;9.73;;;4.50;99.90;;;;;;4995626;28;20372;-83
2021/11/11 01:25:19;;;;;;;20.37;9.97;;;4.50;99.90;;;;;;4995472;28;20036;-81
2021/11/11 01:27:46;;;;;;;19.73;9.68;;;4.50;99.90;;;;;;5013106;28;20045;-81
2021/11/11 01:30:18;;;;;;;21.70;10.50;;;4.50;99.90;;;;;;4994596;28;20056;-81
2021/11/11 01:32:47;;;;;;;19.83;10.43;;;4.50;99.90;;;;;;4995041;28;20026;-81
2021/11/11 01:35:15;;;;;;;21.43;11.20;;;4.50;99.90;;;;;;4995610;28;20462;-81
2021/11/11 01:37:44;;;;;;;20.67;10.47;;;4.60;99.90;;;;;;4995454;28;20028;-81
2021/11/11 01:40:10;;;;;;;19.05;10.63;;;4.70;99.90;;;;;;5011266;28;20446;-81
2021/11/11 01:42:50;;;;;;;19.07;10.30;;;4.80;99.90;;;;;;4994622;28;20119;-81
2021/11/11 01:45:17;;;;;;;18.55;10.00;;;4.90;99.90;;;;;;4994447;28;20041;-81
2021/11/11 01:47:44;;;;;;;20.00;10.97;;;4.90;99.90;;;;;;4994775;28;20038;-81
2021/11/11 01:50:11;;;;;;;20.30;10.00;;;4.90;99.90;;;;;;4993441;28;20469;-83
2021/11/11 01:52:41;;;;;;;21.17;10.30;;;4.80;99.90;;;;;;4994134;28;20030;-81
2021/11/11 01:55:08;;;;;;;21.73;10.27;;;4.80;99.90;;;;;;5011037;28;20033;-81
2021/11/11 01:57:35;;;;;;;16.93;10.03;;;4.70;99.90;;;;;;4993888;28;20026;-83
2021/11/11 02:00:15;;;;;;;18.73;10.33;;;4.80;99.90;;;;;;5009498;28;20088;-82
2021/11/11 02:02:41;;;;;;;20.97;10.93;;;4.70;99.90;;;;;;4993575;28;20459;-83
2021/11/11 02:05:09;;;;;;;21.17;10.67;;;4.60;99.90;;;;;;4993412;28;20104;-82
2021/11/11 02:07:35;;;;;;;18.90;10.17;;;4.60;99.90;;;;;;5010350;28;20033;-83
2021/11/11 02:10:02;;;;;;;21.80;10.40;;;4.60;99.90;;;;;;4991787;28;20034;-83
2021/11/11 02:12:42;;;;;;;22.13;10.57;;;4.50;99.90;;;;;;5010989;28;20096;-84
2021/11/11 02:15:15;;;;;;;19.60;10.57;;;4.50;99.90;;;;;;5011266;28;20037;-83
2021/11/11 02:17:41;;;;;;;21.27;10.37;;;4.50;99.90;;;;;;4994139;28;20505;-84
2021/11/11 02:20:24;;;;;;;21.17;10.73;;;4.60;99.90;;;;;;4994131;28;20064;-83
2021/11/11 02:23:01;;;;;;;19.73;10.27;;;4.50;99.90;;;;;;5012721;28;20056;-83
2021/11/11 02:25:52;;;;;;;17.60;10.43;;;4.50;99.90;;;;;;4997833;28;20029;-81
2021/11/11 02:28:20;;;;;;;21.33;10.80;;;4.40;99.90;;;;;;5011190;28;20046;-84
2021/11/11 02:30:50;;;;;;;19.83;10.53;;;4.30;99.90;;;;;;4977704;28;20033;-84
2021/11/11 02:33:24;;;;;;;20.07;10.63;;;4.30;99.90;;;;;;4994362;28;20095;-82
2021/11/11 02:35:50;;;;;;;17.40;9.23;;;4.40;99.90;;;;;;4995021;28;20026;-84
2021/11/11 02:38:17;;;;;;;18.23;10.03;;;4.20;99.90;;;;;;4994665;28;20088;-82
2021/11/11 02:40:44;;;;;;;20.73;10.50;;;4.20;99.90;;;;;;4993607;28;20038;-83
2021/11/11 02:43:12;;;;;;;16.70;10.10;;;4.20;99.90;;;;;;4994550;28;20041;-84
2021/11/11 02:45:42;;;;;;;17.80;9.70;;;4.20;99.90;;;;;;4993810;28;20068;-84
2021/11/11 02:48:11;;;;;;;20.80;10.60;;;4.20;99.90;;;;;;4994484;28;20025;-84
2021/11/11 02:50:44;;;;;;;19.20;10.17;;;4.20;99.90;;;;;;4993969;28;20076;-83
2021/11/11 02:53:10;;;;;;;23.03;9.57;;;4.20;99.90;;;;;;4994345;28;20096;-84
2021/11/11 02:55:39;;;;;;;20.38;10.65;;;4.20;99.90;;;;;;4992229;28;20026;-84
2021/11/11 02:58:06;;;;;;;17.23;9.47;;;4.30;99.90;;;;;;4993844;28;20076;-83
2021/11/11 03:00:56;;;;;;;17.63;10.03;;;4.30;99.90;;;;;;4993459;28;20030;-84
2021/11/11 03:03:25;;;;;;;20.27;9.83;;;4.30;99.90;;;;;;4994030;28;20490;-82
2021/11/11 03:05:52;;;;;;;16.33;9.33;;;4.20;99.90;;;;;;4978208;28;20029;-84
2021/11/11 03:08:19;;;;;;;20.50;9.97;;;4.10;99.90;;;;;;4994136;28;20121;-81
2021/11/11 03:10:51;;;;;;;20.57;10.47;;;4.10;99.90;;;;;;4993414;28;20022;-82
2021/11/11 03:13:19;;;;;;;21.10;9.67;;;4.00;99.90;;;;;;4993835;28;20317;-81
2021/11/11 03:15:54;;;;;;;17.30;9.60;;;4.00;99.90;;;;;;4978722;28;20026;-84
2021/11/11 03:18:21;;;;;;;19.60;9.70;;;4.00;99.90;;;;;;4993725;28;20053;-84
2021/11/11 03:20:48;;;;;;;21.50;10.57;;;3.90;99.90;;;;;;4993293;28;20091;-84
2021/11/11 03:23:14;;;;;;;19.63;9.47;;;3.90;99.90;;;;;;4993842;28;20120;-82
2021/11/11 03:25:40;;;;;;;19.50;9.93;;;3.80;99.90;;;;;;5011578;28;20467;-82
2021/11/11 03:28:06;;;;;;;17.80;10.10;;;3.90;99.90;;;;;;4993869;28;20552;-83
2021/11/11 03:30:34;;;;;;;21.33;10.73;;;3.90;99.90;;;;;;4993126;28;20030;-82
2021/11/11 03:33:03;;;;;;;21.27;10.32;;;3.70;99.90;;;;;;4977878;28;20030;-83
2021/11/11 03:35:36;;;;;;;19.37;10.77;;;3.70;99.90;;;;;;5010455;28;20139;-84
2021/11/11 03:38:04;;;;;;;17.03;9.83;;;3.70;99.90;;;;;;4996547;28;20037;-83
2021/11/11 03:40:34;;;;;;;19.95;10.80;;;3.70;99.90;;;;;;4996806;28;20022;-83
2021/11/11 03:43:01;;;;;;;21.30;11.48;;;3.70;99.90;;;;;;4996692;28;20029;-82
2021/11/11 03:45:34;;;;;;;18.07;10.53;;;3.70;99.90;;;;;;4997065;28;20030;-84
2021/11/11 03:48:00;;;;;;;18.23;10.70;;;3.70;99.90;;;;;;5015169;28;20037;-82
2021/11/11 03:50:27;;;;;;;21.50;10.80;;;3.70;99.90;;;;;;4996943;28;20029;-82
2021/11/11 03:52:55;;;;;;;21.63;10.97;;;3.70;99.90;;;;;;4997802;28;20026;-84
2021/11/11 03:55:23;;;;;;;23.43;11.20;;;3.80;99.90;;;;;;4997508;28;20029;-84
2021/11/11 03:57:51;;;;;;;21.60;11.43;;;3.70;99.90;;;;;;5014361;28;20026;-84
2021/11/11 04:00:18;;;;;;;21.80;11.17;;;3.60;99.90;;;;;;4996832;28;20394;-84
2021/11/11 04:02:49;;;;;;;22.50;11.03;;;3.60;99.90;;;;;;4997312;28;20496;-83
2021/11/11 04:05:18;;;;;;;21.95;11.43;;;3.60;99.90;;;;;;5013941;28;20378;-84
2021/11/11 04:07:51;;;;;;;22.03;10.57;;;3.60;99.90;;;;;;4998245;28;20180;-82
2021/11/11 04:10:18;;;;;;;20.83;10.63;;;3.60;99.90;;;;;;5013599;28;20029;-81
2021/11/11 04:12:47;;;;;;;22.27;10.60;;;3.60;99.90;;;;;;4998597;28;20084;-81
2021/11/11 04:15:14;;;;;;;21.87;12.10;;;3.60;99.90;;;;;;4998670;28;20037;-81
2021/11/11 04:17:40;;;;;;;21.73;10.43;;;3.60;99.90;;;;;;5016475;28;20026;-81
2021/11/11 04:20:07;;;;;;;20.90;10.63;;;3.60;99.90;;;;;;5015935;28;20168;-82
2021/11/11 04:22:33;;;;;;;21.70;11.20;;;3.70;99.90;;;;;;4995404;28;20034;-82
2021/11/11 04:25:02;;;;;;;20.33;10.37;;;3.60;99.90;;;;;;4995097;28;20117;-82
2021/11/11 04:27:38;;;;;;;20.67;10.53;;;3.50;99.90;;;;;;4994993;28;20491;-82
2021/11/11 04:30:15;;;;;;;19.47;10.27;;;3.60;99.90;;;;;;4994947;28;20031;-81
2021/11/11 04:32:41;;;;;;;17.63;10.50;;;3.60;99.90;;;;;;4995587;28;20494;-81
2021/11/11 04:35:08;;;;;;;20.17;10.03;;;3.60;99.90;;;;;;4996972;28;20018;-82
2021/11/11 04:37:45;;;;;;;19.07;10.43;;;3.60;99.90;;;;;;4995259;28;20026;-81
2021/11/11 04:48:04;;;;;;;20.77;11.23;;;3.60;99.90;;;;;;4994838;28;20403;-82
2021/11/11 05:01:28;;;;;;;22.60;11.30;;;3.60;99.90;;;;;;4995492;28;20033;-84
2021/11/11 05:03:54;;;;;;;22.07;10.83;;;3.60;99.90;;;;;;4996886;28;20030;-82
2021/11/11 05:06:20;;;;;;;21.27;10.90;;;3.50;99.90;;;;;;5012467;28;20037;-83
2021/11/11 05:08:48;;;;;;;22.03;11.33;;;3.60;99.90;;;;;;5012814;28;20034;-82
2021/11/11 05:11:14;;;;;;;20.03;10.80;;;3.60;99.90;;;;;;4995901;28;20030;-85
2021/11/11 05:13:41;;;;;;;20.27;11.47;;;3.60;99.90;;;;;;4996565;28;20022;-81
2021/11/11 05:16:11;;;;;;;24.13;11.57;;;3.60;99.90;;;;;;4996085;28;20057;-84
2021/11/11 05:18:37;;;;;;;20.70;10.87;;;3.60;99.90;;;;;;4996594;28;20049;-84
2021/11/11 05:21:05;;;;;;;22.50;11.25;;;3.60;99.90;;;;;;5013490;28;20329;-85
2021/11/11 05:23:33;;;;;;;23.70;11.77;;;3.60;99.90;;;;;;4996265;28;20079;-82
2021/11/11 05:25:59;;;;;;;20.87;11.53;;;3.60;99.90;;;;;;5013653;28;20080;-83
2021/11/11 05:28:25;;;;;;;21.17;11.60;;;3.60;99.90;;;;;;4998210;28;20120;-84
2021/11/11 05:30:53;;;;;;;21.37;11.43;;;3.60;99.90;;;;;;4996473;28;20025;-81
2021/11/11 05:33:19;;;;;;;20.33;11.87;;;3.60;99.90;;;;;;5012303;28;20034;-82
2021/11/11 05:35:45;;;;;;;22.47;11.17;;;3.60;99.90;;;;;;4995774;28;20084;-83
2021/11/11 05:38:11;;;;;;;24.03;11.77;;;3.60;99.90;;;;;;4995265;28;20025;-81
2021/11/11 05:40:37;;;;;;;24.87;12.33;;;3.60;99.90;;;;;;4995244;28;20036;-81
2021/11/11 05:43:04;;;;;;;19.93;11.30;;;3.60;99.90;;;;;;5014336;28;20450;-82
2021/11/11 05:45:30;;;;;;;23.53;12.10;;;3.60;99.90;;;;;;4995694;28;20100;-81
2021/11/11 05:47:59;;;;;;;22.67;11.77;;;3.50;99.90;;;;;;4995304;28;20129;-80
2021/11/11 05:50:28;;;;;;;25.30;12.27;;;3.60;99.90;;;;;;5011492;28;20084;-81
2021/11/11 05:52:55;;;;;;;21.53;12.47;;;3.60;99.90;;;;;;5013877;28;20029;-83
2021/11/11 05:55:21;;;;;;;24.63;12.47;;;3.70;99.90;;;;;;4997009;28;20033;-85
2021/11/11 05:57:47;;;;;;;25.87;11.93;;;3.70;99.90;;;;;;4996541;28;20084;-81
2021/11/11 06:00:16;;;;;;;24.17;12.90;;;3.80;99.90;;;;;;4994809;28;20030;-81
2021/11/11 06:02:45;;;;;;;24.00;12.50;;;3.80;99.90;;;;;;4994693;28;20052;-81
2021/11/11 06:05:19;;;;;;;22.80;12.40;;;3.90;99.90;;;;;;4993582;28;20057;-81
2021/11/11 06:07:45;;;;;;;23.80;12.47;;;4.00;99.90;;;;;;4993161;28;20370;-81
2021/11/11 06:10:11;;;;;;;22.23;12.93;;;4.00;99.90;;;;;;5009357;28;20030;-80
2021/11/11 06:12:37;;;;;;;26.13;13.63;;;4.10;99.90;;;;;;5010393;28;20137;-81
2021/11/11 06:15:04;;;;;;;23.67;12.73;;;4.00;99.90;;;;;;5011197;28;20036;-81
2021/11/11 06:17:30;;;;;;;20.50;11.50;;;4.00;99.90;;;;;;4993240;28;20438;-81
2021/11/11 06:19:56;;;;;;;26.03;12.87;;;4.00;99.90;;;;;;4994314;28;20041;-81
2021/11/11 06:22:23;;;;;;;22.27;12.60;;;4.00;99.90;;;;;;4996014;28;20076;-82
2021/11/11 06:24:49;;;;;;;25.20;12.80;;;4.10;99.90;;;;;;4995393;28;20026;-81
2021/11/11 06:27:17;;;;;;;24.67;12.60;;;4.10;99.90;;;;;;4995039;28;20033;-83
2021/11/11 06:29:44;;;;;;;26.65;12.55;;;4.10;99.90;;;;;;4994264;28;20030;-83
2021/11/11 06:32:11;;;;;;;27.70;13.73;;;4.10;99.90;;;;;;4994764;28;20121;-82
2021/11/11 06:34:40;;;;;;;28.95;13.05;;;4.10;99.90;;;;;;4994917;28;20026;-81
2021/11/11 06:37:06;;;;;;;30.13;14.03;;;4.10;99.90;;;;;;5012772;28;20506;-82
2021/11/11 06:39:32;;;;;;;25.57;13.90;;;4.10;99.90;;;;;;5012081;28;20076;-83
2021/11/11 06:41:57;;;;;;;24.30;13.43;;;4.00;99.90;;;;;;4995963;28;20483;-83
2021/11/11 06:44:24;;;;;;;26.73;14.23;;;3.90;99.90;;;;;;5015793;28;20030;-82
2021/11/11 06:46:51;;;;;;;28.70;14.27;;;3.90;99.90;;;;;;5021988;28;20079;-82
2021/11/11 06:49:17;;;;;;;28.33;13.53;;;3.90;99.90;;;;;;4996874;28;20062;-82
2021/11/11 06:51:43;;;;;;;26.20;13.63;;;3.90;99.90;;;;;;5015534;28;20402;-83
2021/11/11 06:54:10;;;;;;;27.53;13.37;;;3.90;99.90;;;;;;5015051;28;20056;-82
2021/11/11 06:56:37;;;;;;;27.97;13.97;;;3.80;99.90;;;;;;4994701;28;20069;-82
2021/11/11 06:59:03;;;;;;;25.80;14.20;;;3.90;99.90;;;;;;4994968;28;20037;-82
2021/11/11 07:01:29;;;;;;;29.87;14.17;;;3.90;99.90;;;;;;5011120;28;20037;-80
2021/11/11 07:03:55;;;;;;;26.83;13.83;;;3.80;99.90;;;;;;5012414;28;20049;-82
2021/11/11 07:06:21;;;;;;;31.90;14.00;;;3.80;99.90;;;;;;4996428;28;20525;-80
2021/11/11 07:08:47;;;;;;;25.03;13.20;;;3.80;99.90;;;;;;4996760;28;20124;-80
2021/11/11 07:11:13;;;;;;;31.93;14.00;;;3.80;99.90;;;;;;5012777;28;20033;-83
2021/11/11 07:13:38;;;;;;;27.67;13.70;;;3.80;99.90;;;;;;4995981;28;20097;-83
2021/11/11 07:16:04;;;;;;;26.47;13.87;;;3.80;99.90;;;;;;4980871;28;20053;-84
2021/11/11 07:18:30;;;;;;;26.47;14.10;;;3.70;99.90;;;;;;5013408;28;20105;-83
2021/11/11 07:20:56;;;;;;;30.03;13.97;;;3.70;99.90;;;;;;4977893;28;20072;-84
2021/11/11 07:23:23;;;;;;;27.60;13.27;;;3.80;99.90;;;;;;4990808;28;20045;-84
2021/11/11 07:25:50;;;;;;;26.00;14.27;;;3.70;99.90;;;;;;4976477;28;20027;-82
2021/11/11 07:28:17;;;;;;;26.33;12.93;;;3.70;99.90;;;;;;4991149;28;20034;-81
2021/11/11 07:30:46;;;;;;;25.67;13.07;;;3.70;99.90;;;;;;5013733;28;20032;-81
2021/11/11 07:33:14;;;;;;;23.80;13.25;;;3.70;99.90;;;;;;4997704;28;20052;-83
2021/11/11 07:35:41;;;;;;;27.93;13.47;;;3.70;99.90;;;;;;4995409;28;20069;-79
2021/11/11 07:38:07;;;;;;;22.10;12.87;;;3.80;99.90;;;;;;5010755;28;20054;-84
2021/11/11 07:40:35;;;;;;;24.73;13.37;;;3.90;99.90;;;;;;5011837;28;20530;-85
2021/11/11 07:43:02;;;;;;;25.57;13.90;;;3.80;99.90;;;;;;5012192;28;20609;-82
2021/11/11 07:45:35;;;;;;;23.03;13.73;;;3.80;99.90;;;;;;5011780;28;20025;-82
2021/11/11 07:48:02;;;;;;;26.57;13.23;;;3.80;99.90;;;;;;4994206;28;20132;-85
2021/11/11 07:50:30;;;;;;;25.73;13.77;;;3.90;99.90;;;;;;5011857;28;20151;-85
2021/11/11 07:52:59;;;;;;;24.67;12.43;;;3.90;99.90;;;;;;4994097;28;20033;-81
2021/11/11 07:55:25;;;;;;;19.50;12.50;;;3.90;99.90;;;;;;4991428;28;20086;-81
2021/11/11 07:57:51;;;;;;;27.07;14.47;;;4.00;99.90;;;;;;5009392;28;20123;-83
2021/11/11 08:00:18;;;;;;;24.27;13.33;;;4.00;99.90;;;;;;5011030;28;20410;-83
2021/11/11 08:02:44;;;;;;;22.97;13.33;;;4.10;99.90;;;;;;5011360;28;20089;-80
2021/11/11 08:05:12;;;;;;;26.97;13.93;;;4.00;99.90;;;;;;5011343;28;20163;-83
2021/11/11 08:07:38;;;;;;;23.85;13.68;;;4.10;99.90;;;;;;4993317;28;20026;-80
2021/11/11 08:10:05;;;;;;;26.73;13.53;;;4.00;99.90;;;;;;4992813;28;20195;-81
2021/11/11 08:12:31;;;;;;;23.87;13.80;;;4.10;99.90;;;;;;4992611;28;20140;-79
2021/11/11 08:14:58;;;;;;;23.93;13.67;;;4.10;99.90;;;;;;5009644;28;20060;-80
2021/11/11 08:17:24;;;;;;;26.17;14.20;;;4.10;99.90;;;;;;4991913;28;20038;-83
2021/11/11 08:19:56;;;;;;;23.67;13.27;;;4.10;99.90;;;;;;5009400;28;20040;-80
2021/11/11 08:22:27;;;;;;;21.67;12.33;;;4.10;99.90;;;;;;4992019;28;20062;-81
2021/11/11 08:24:53;;;;;;;27.50;14.03;;;4.20;99.90;;;;;;5013401;28;20117;-80
2021/11/11 08:27:21;;;;;;;24.07;13.30;;;4.30;99.90;;;;;;5015381;28;20022;-79
2021/11/11 08:29:47;;;;;;;28.10;14.27;;;4.30;99.90;;;;;;5017942;28;20089;-81
2021/11/11 08:32:14;;;;;;;29.00;14.23;;;4.30;99.90;;;;;;4999976;28;20060;-81
2021/11/11 08:34:44;;;;;;;29.63;13.67;;;4.40;99.90;;;;;;5015607;28;20056;-81
2021/11/11 08:37:10;;;;;;;23.50;12.63;;;4.40;99.90;;;;;;4997450;28;20049;-82
2021/11/11 08:39:37;;;;;;;26.80;14.03;;;4.50;99.90;;;;;;5001823;28;20029;-80
2021/11/11 08:42:04;;;;;;;26.03;14.90;;;4.50;99.90;;;;;;5015394;28;20347;-79
2021/11/11 08:44:30;;;;;;;25.07;13.70;;;4.60;99.90;;;;;;5017496;28;20042;-80
2021/11/11 08:46:57;;;;;;;27.00;13.60;;;4.60;99.90;;;;;;4998431;28;20125;-81
2021/11/11 08:49:23;;;;;;;23.03;14.13;;;4.60;99.90;;;;;;4995694;28;20333;-83
2021/11/11 08:51:51;;;;;;;29.80;14.53;;;4.70;99.90;;;;;;5018937;28;20034;-82
2021/11/11 08:54:18;;;;;;;28.07;15.20;;;4.70;99.90;;;;;;4989432;28;20113;-82
2021/11/11 08:56:50;;;;;;;28.83;15.50;;;4.80;99.90;;;;;;4994664;28;20072;-80
2021/11/11 08:59:18;;;;;;;32.10;15.90;;;5.00;99.90;;;;;;4995988;28;20034;-83
2021/11/11 09:01:45;;;;;;;26.27;14.80;;;5.00;99.90;;;;;;5015337;28;20383;-82
2021/11/11 09:04:13;;;;;;;27.90;15.37;;;5.10;99.90;;;;;;5013717;28;20037;-83
2021/11/11 09:06:39;;;;;;;26.47;15.17;;;5.10;99.90;;;;;;5014215;28;20507;-80
2021/11/11 09:09:05;;;;;;;28.97;15.87;;;5.20;99.90;;;;;;5012284;28;20026;-81
2021/11/11 09:11:30;;;;;;;25.90;15.27;;;5.20;99.90;;;;;;4995566;28;20502;-81
2021/11/11 09:13:56;;;;;;;26.60;15.00;;;5.20;99.90;;;;;;5014676;28;20067;-82
2021/11/11 09:16:24;;;;;;;27.33;16.40;;;5.20;99.90;;;;;;5014755;28;20032;-82
2021/11/11 09:18:50;;;;;;;24.03;15.03;;;5.30;99.90;;;;;;5014187;28;20076;-79
2021/11/11 09:21:16;;;;;;;28.10;15.93;;;5.30;99.90;;;;;;5013941;28;20042;-82
2021/11/11 09:23:42;;;;;;;25.07;15.40;;;5.40;99.90;;;;;;4995488;28;20599;-82
2021/11/11 09:26:09;;;;;;;27.30;15.50;;;5.40;99.90;;;;;;4998515;28;20034;-78
2021/11/11 09:28:38;;;;;;;28.97;16.17;;;5.40;99.90;;;;;;4996558;28;20034;-79
2021/11/11 09:31:06;;;;;;;27.00;16.55;;;5.50;99.90;;;;;;5016356;28;20030;-81
2021/11/11 09:33:32;;;;;;;30.13;17.00;;;5.50;99.90;;;;;;5014200;28;20041;-80
2021/11/11 09:35:58;;;;;;;31.60;17.07;;;5.60;99.90;;;;;;4996993;28;20018;-78
2021/11/11 09:38:25;;;;;;;29.93;16.60;;;5.60;99.90;;;;;;5015086;28;20033;-79
2021/11/11 09:40:52;;;;;;;27.93;15.67;;;5.60;99.90;;;;;;4997388;28;20474;-80
2021/11/11 09:43:18;;;;;;;30.67;16.67;;;5.70;99.90;;;;;;5014303;28;20034;-78
2021/11/11 09:45:46;;;;;;;30.63;17.30;;;5.70;99.90;;;;;;5015683;28;20022;-79
2021/11/11 09:48:14;;;;;;;29.33;16.23;;;5.70;99.90;;;;;;5015082;28;20467;-79
2021/11/11 09:50:41;;;;;;;31.03;16.90;;;5.70;99.90;;;;;;5014899;28;20105;-78
2021/11/11 09:53:12;;;;;;;32.23;17.60;;;5.70;99.90;;;;;;5014667;28;20092;-81
2021/11/11 09:58:38;;;;;;;32.77;17.63;;;5.80;99.90;;;;;;4995474;28;20125;-79
2021/11/11 10:01:16;;;;;;;35.93;18.17;;;5.90;99.90;;;;;;5014336;28;20513;-79
2021/11/11 10:03:43;;;;;;;32.67;18.03;;;5.90;99.90;;;;;;5014604;28;20561;-80
2021/11/11 10:06:10;;;;;;;31.97;17.97;;;5.90;99.90;;;;;;5014953;28;20029;-81
2021/11/11 10:08:38;;;;;;;34.80;18.60;;;6.00;99.90;;;;;;5013974;28;20041;-80
2021/11/11 10:11:09;;;;;;;38.73;19.20;;;6.10;99.90;;;;;;4997067;28;20481;-78
2021/11/11 10:13:35;;;;;;;35.97;18.30;;;6.10;99.90;;;;;;5013585;28;20039;-79
2021/11/11 10:16:07;;;;;;;34.13;19.70;;;6.10;99.90;;;;;;5014033;28;20461;-82
2021/11/11 10:18:39;;;;;;;32.90;18.70;;;6.10;99.90;;;;;;4994217;28;20071;-83
2021/11/11 10:21:30;;;;;;;36.30;18.73;;;6.10;99.90;;;;;;5011615;28;20040;-82
2021/11/11 10:24:09;;;;;;;34.03;18.57;;;6.20;99.90;;;;;;4994396;28;20137;-81
2021/11/11 10:26:40;;;;;;;;;;;6.20;99.90;;;;;;5012723;28;20044;-82
2021/11/11 10:29:18;;;;;;;37.17;19.50;;;6.20;99.90;;;;;;4992000;28;19921;-80
2021/11/11 10:31:54;;;;;;;34.60;19.47;;;6.30;99.90;;;;;;4993809;28;20080;-81
2021/11/11 10:34:20;;;;;;;38.37;19.57;;;6.30;99.90;;;;;;5011940;28;20153;-80
2021/11/11 10:36:50;;;;;;;33.50;18.37;;;6.30;99.90;;;;;;4993991;28;20619;-82
2021/11/11 10:39:24;;;;;;;34.63;19.38;;;6.40;99.90;;;;;;4992675;28;20128;-83
2021/11/11 10:41:52;;;;;;;36.17;19.23;;;6.50;99.90;;;;;;4993441;28;20083;-80
2021/11/11 10:44:31;;;;;;;34.10;19.07;;;6.50;99.90;;;;;;5009841;28;20029;-80
2021/11/11 10:47:08;;;;;;;33.42;19.63;;;6.60;99.90;;;;;;4994278;28;20092;-83
2021/11/11 10:49:41;;;;;;;31.20;18.43;;;6.70;99.90;;;;;;4992750;28;20537;-84
2021/11/11 10:52:20;;;;;;;36.73;19.00;;;6.80;99.90;;;;;;4993499;28;20435;-82
2021/11/11 10:55:07;;;;;;;32.53;18.97;;;6.90;99.90;;;;;;5010999;28;20037;-81
2021/11/11 10:57:40;;;;;;;36.80;18.83;;;7.00;99.90;;;;;;5010302;28;20037;-80
2021/11/11 11:00:17;;;;;;;33.63;18.97;;;7.10;99.90;;;;;;4993011;28;20042;-82
2021/11/11 11:03:02;;;;;;;36.33;19.73;;;7.20;99.90;;;;;;4993188;28;20080;-83
2021/11/11 11:05:47;;;;;;;35.30;18.80;;;7.20;99.90;;;;;;4993843;28;20065;-82
2021/11/11 11:08:17;;;;;;;33.37;19.07;;;7.30;99.90;;;;;;5011933;28;20106;-83
2021/11/11 11:10:45;;;;;;;36.67;19.35;;;7.30;99.90;;;;;;5011866;28;20030;-83
2021/11/11 11:13:24;;;;;;;35.97;19.90;;;7.40;99.90;;;;;;4993259;28;20083;-81
2021/11/11 11:15:54;;;;;;;35.13;20.20;;;7.30;99.90;;;;;;5012770;28;20538;-81
2021/11/11 11:18:24;;;;;;;38.47;20.13;;;7.40;99.90;;;;;;4993855;28;20114;-83
2021/11/11 11:20:54;;;;;;;37.57;20.27;;;7.40;99.90;;;;;;4993648;28;20140;-82
2021/11/11 11:23:33;;;;;;;40.03;21.70;;;7.40;99.90;;;;;;4993811;28;20030;-81
2021/11/11 11:26:12;;;;;;;35.47;20.20;;;7.40;99.90;;;;;;5009895;28;20080;-82
2021/11/11 11:28:51;;;;;;;36.13;21.33;;;7.50;99.90;;;;;;4993143;28;20422;-82
2021/11/11 11:31:26;;;;;;;43.33;21.23;;;7.50;99.90;;;;;;5010876;28;20037;-82
2021/11/11 11:33:53;;;;;;;36.20;19.80;;;7.50;99.90;;;;;;5010680;28;20026;-82
2021/11/11 11:36:35;;;;;;;39.90;21.80;;;7.50;99.90;;;;;;5010627;28;20185;-82
2021/11/11 11:39:01;;;;;;;37.57;20.13;;;7.60;99.90;;;;;;5009958;28;20113;-81
2021/11/11 11:41:38;;;;;;;36.23;20.20;;;7.50;99.90;;;;;;5010865;28;20382;-83
2021/11/11 11:44:22;;;;;;;37.57;20.20;;;7.60;99.90;;;;;;4992137;28;20387;-81
2021/11/11 11:47:16;;;;;;;39.03;21.20;;;7.60;99.90;;;;;;4993376;28;20046;-82
2021/11/11 11:49:45;;;;;;;47.63;22.00;;;7.60;99.90;;;;;;5010075;28;20137;-80
2021/11/11 11:52:12;;;;;;;39.40;21.50;;;7.60;99.90;;;;;;5011797;28;20023;-80
2021/11/11 11:54:51;;;;;;;39.57;21.70;;;7.70;99.90;;;;;;5011339;28;20357;-80
2021/11/11 12:00:03;;;;;;;39.87;21.27;;;7.70;99.90;;;;;;5013351;28;20482;-80
2021/11/11 12:05:29;;;;;;;41.53;22.63;;;7.70;99.90;;;;;;5015413;28;20029;-81
2021/11/11 12:08:10;;;;;;;44.73;22.57;;;7.70;99.90;;;;;;5015025;28;20033;-80
2021/11/11 12:13:21;;;;;;;48.83;24.47;;;7.70;99.90;;;;;;5013384;28;20030;-80
2021/11/11 12:16:22;;;;;;;49.80;24.60;;;7.80;99.90;;;;;;5015175;28;20097;-82
2021/11/11 12:28:31;;;;;;;45.90;24.53;;;7.80;99.90;;;;;;4997032;28;20141;-80
2021/11/11 12:39:31;;;;;;;51.27;25.03;;;8.00;99.90;;;;;;5015375;28;20546;-80
2021/11/11 12:41:59;;;;;;;53.13;24.83;;;8.00;99.90;;;;;;4997344;28;20052;-80
2021/11/11 12:44:25;;;;;;;50.77;26.07;;;8.00;99.90;;;;;;5014118;28;20022;-80
2021/11/11 12:46:51;;;;;;;47.97;24.97;;;8.00;99.90;;;;;;4996668;28;20136;-80
2021/11/11 12:49:30;;;;;;;50.00;24.93;;;8.00;99.90;;;;;;5013688;28;20131;-80
2021/11/11 12:52:14;;;;;;;47.38;25.35;;;8.00;99.90;;;;;;5014495;28;20026;-80
2021/11/11 12:54:44;;;;;;;48.93;26.17;;;8.00;99.90;;;;;;5014628;28;20144;-80
2021/11/11 12:57:16;;;;;;;51.67;25.77;;;8.00;99.90;;;;;;4996973;28;20029;-79
2021/11/11 12:59:42;;;;;;;52.83;26.20;;;8.00;99.90;;;;;;5013587;28;20083;-80
2021/11/11 13:02:09;;;;;;;55.80;27.70;;;8.00;99.90;;;;;;5014200;28;20116;-80
2021/11/11 13:04:56;;;;;;;52.53;26.00;;;8.10;99.90;;;;;;5013515;28;20034;-80
2021/11/11 13:07:28;;;;;;;51.20;26.93;;;8.10;99.90;;;;;;5014036;28;20037;-81
2021/11/11 13:10:19;;;;;;;52.13;26.33;;;8.00;99.90;;;;;;5013167;28;20049;-85
2021/11/11 13:13:08;;;;;;;53.87;27.27;;;8.10;99.90;;;;;;5014193;28;20026;-80
2021/11/11 13:15:41;;;;;;;;;;;8.10;99.90;;;;;;5014844;28;20038;-80
2021/11/11 13:18:09;;;;;;;52.10;26.10;;;8.10;99.90;;;;;;4996502;28;20297;-79
2021/11/11 13:20:42;;;;;;;56.37;28.07;;;8.10;99.90;;;;;;5013909;28;20041;-79
2021/11/11 13:23:37;;;;;;;52.50;25.37;;;8.10;99.90;;;;;;5014249;28;20037;-80
2021/11/11 14:00:43;;;;;;;56.03;27.53;;;8.10;99.90;;;;;;4994457;28;20102;-83
2021/11/11 16:27:53;;;;;;;56.83;27.67;;;8.20;99.90;;;;;;5012583;28;20060;-86
2021/11/11 16:30:21;;;;;;;61.07;28.53;;;8.20;99.90;;;;;;5014397;28;20401;-86
2021/11/11 16:32:49;;;;;;;58.90;29.00;;;8.20;99.90;;;;;;4998770;28;20033;-86
2021/11/11 16:35:17;;;;;;;64.80;30.13;;;8.20;99.90;;;;;;5015413;28;20034;-86
2021/11/11 16:37:44;;;;;;;59.28;28.83;;;8.20;99.90;;;;;;4998769;28;20052;-86